Time;durP1;ratioP1;P1;durP2;ratioP2;P2;SDS_P1;SDS_P2;PMS_P1;PMS_P2;Temp;Humidity;BMP_temperature;BMP_pressure;BME280_temperature;BME280_humidity;BME280_pressure;Samples;Min_cycle;Max_cycle;Signal;HPM_P1;HPM_P2
2021/06/13 00:00:48;;;;;;;8.57;3.47;;;;;;;;;;5003894;28;20204;-78
2021/06/13 00:03:13;;;;;;;9.43;4.00;;;;;;;;;;5009060;28;20575;-79
2021/06/13 00:05:38;;;;;;;10.50;4.00;;;;;;;;;;5007640;28;20192;-79
2021/06/13 00:08:04;;;;;;;13.23;3.87;;;;;;;;;;5008947;28;20183;-77
2021/06/13 00:10:29;;;;;;;8.40;3.77;;;;;;;;;;5007495;28;20265;-78
2021/06/13 00:12:57;;;;;;;9.23;3.90;;;;;;;;;;4997763;28;20230;-79
2021/06/13 00:15:25;;;;;;;10.93;3.97;;;;;;;;;;5008442;28;20290;-79
2021/06/13 00:17:52;;;;;;;9.50;3.87;;;;;;;;;;5003554;28;20191;-79
2021/06/13 00:20:22;;;;;;;9.83;3.87;;;;;;;;;;5006301;28;20210;-80
2021/06/13 00:22:47;;;;;;;8.40;3.70;;;;;;;;;;5008588;28;20273;-81
2021/06/13 00:25:15;;;;;;;9.03;3.63;;;;;;;;;;5005808;28;20234;-80
2021/06/13 00:27:43;;;;;;;13.63;4.47;;;;;;;;;;5004702;28;20200;-80
2021/06/13 00:30:10;;;;;;;8.80;3.77;;;;;;;;;;5006514;28;20191;-78
2021/06/13 00:32:36;;;;;;;13.23;4.57;;;;;;;;;;5008145;28;20573;-79
2021/06/13 00:35:02;;;;;;;11.97;4.20;;;;;;;;;;5009111;28;20190;-79
2021/06/13 00:37:28;;;;;;;9.83;3.80;;;;;;;;;;5008711;28;20175;-79
2021/06/13 00:39:53;;;;;;;8.77;3.90;;;;;;;;;;5006572;28;20203;-78
2021/06/13 00:42:22;;;;;;;8.20;4.43;;;;;;;;;;5006827;28;20211;-78
2021/06/13 00:44:48;;;;;;;9.30;3.97;;;;;;;;;;5008223;28;20187;-79
2021/06/13 00:47:13;;;;;;;12.23;3.93;;;;;;;;;;5009336;28;20187;-80
2021/06/13 00:49:38;;;;;;;11.93;4.30;;;;;;;;;;5008859;28;20217;-80
2021/06/13 00:52:04;;;;;;;10.83;4.30;;;;;;;;;;5004876;28;20207;-78
2021/06/13 00:54:30;;;;;;;10.63;4.60;;;;;;;;;;5000288;28;20207;-78
2021/06/13 00:56:55;;;;;;;8.23;3.67;;;;;;;;;;5006306;28;20215;-79
2021/06/13 00:59:23;;;;;;;15.80;4.50;;;;;;;;;;5003792;28;20322;-81
2021/06/13 01:01:48;;;;;;;13.07;4.47;;;;;;;;;;5001645;28;20283;-79
2021/06/13 01:04:13;;;;;;;9.03;4.20;;;;;;;;;;5004917;28;20640;-79
2021/06/13 01:07:02;;;;;;;8.47;4.47;;;;;;;;;;5006277;28;20229;-78
2021/06/13 01:09:31;;;;;;;12.03;4.80;;;;;;;;;;5003220;28;20199;-79
2021/06/13 01:12:09;;;;;;;17.37;4.13;;;;;;;;;;5005656;28;20496;-79
2021/06/13 01:14:43;;;;;;;9.17;4.13;;;;;;;;;;4989767;28;20529;-79
2021/06/13 01:17:21;;;;;;;13.17;4.63;;;;;;;;;;5004303;28;20233;-79
2021/06/13 01:20:02;;;;;;;11.93;4.40;;;;;;;;;;5003514;28;20663;-79
2021/06/13 01:23:04;;;;;;;12.20;4.27;;;;;;;;;;5002358;28;20219;-79
2021/06/13 01:25:48;;;;;;;11.90;3.80;;;;;;;;;;5002005;28;20191;-78
2021/06/13 01:28:43;;;;;;;11.20;4.73;;;;;;;;;;4996554;28;20274;-79
2021/06/13 01:31:09;;;;;;;11.63;4.80;;;;;;;;;;5003468;28;20249;-78
2021/06/13 01:33:35;;;;;;;11.17;4.90;;;;;;;;;;5006746;28;20183;-78
2021/06/13 01:36:04;;;;;;;8.07;4.17;;;;;;;;;;5005029;28;20202;-79
2021/06/13 01:38:31;;;;;;;11.57;4.23;;;;;;;;;;5006521;28;20205;-78
2021/06/13 01:41:01;;;;;;;13.00;4.77;;;;;;;;;;5005103;28;20661;-79
2021/06/13 01:43:30;;;;;;;13.37;4.60;;;;;;;;;;5005515;28;20204;-80
2021/06/13 01:45:58;;;;;;;10.37;4.83;;;;;;;;;;5008617;28;20175;-77
2021/06/13 01:48:23;;;;;;;16.50;4.80;;;;;;;;;;5009776;28;20261;-79
2021/06/13 01:50:49;;;;;;;14.30;5.03;;;;;;;;;;5011328;28;20748;-78
2021/06/13 01:53:17;;;;;;;15.00;4.90;;;;;;;;;;5010900;28;20580;-80
2021/06/13 01:55:47;;;;;;;13.93;5.00;;;;;;;;;;5011055;28;20256;-79
2021/06/13 01:58:16;;;;;;;15.87;5.20;;;;;;;;;;5010639;28;20522;-79
2021/06/13 02:00:42;;;;;;;15.13;5.47;;;;;;;;;;5006780;28;20230;-77
2021/06/13 02:03:11;;;;;;;12.67;5.30;;;;;;;;;;5006716;28;20639;-79
2021/06/13 02:05:38;;;;;;;13.13;5.30;;;;;;;;;;5004768;28;20242;-79
2021/06/13 02:08:03;;;;;;;11.20;5.07;;;;;;;;;;5009611;28;20550;-78
2021/06/13 02:10:30;;;;;;;11.27;4.67;;;;;;;;;;5009242;28;20213;-79
2021/06/13 02:12:55;;;;;;;11.30;5.10;;;;;;;;;;5005407;28;20286;-79
2021/06/13 02:15:23;;;;;;;13.10;4.90;;;;;;;;;;5009218;28;20610;-79
2021/06/13 02:17:50;;;;;;;13.00;5.33;;;;;;;;;;5011307;28;20215;-79
2021/06/13 02:20:19;;;;;;;13.00;5.00;;;;;;;;;;5007143;28;20179;-80
2021/06/13 02:22:46;;;;;;;16.03;6.07;;;;;;;;;;5006951;28;20219;-78
2021/06/13 02:25:12;;;;;;;12.77;5.47;;;;;;;;;;5007310;28;20199;-78
2021/06/13 02:27:37;;;;;;;11.43;5.27;;;;;;;;;;5006501;28;20835;-79
2021/06/13 02:30:05;;;;;;;10.57;5.43;;;;;;;;;;5011100;28;20627;-78
2021/06/13 02:32:34;;;;;;;12.07;6.23;;;;;;;;;;5007126;28;20756;-79
2021/06/13 02:35:00;;;;;;;11.43;5.37;;;;;;;;;;5009357;28;20562;-78
2021/06/13 02:37:26;;;;;;;11.60;5.13;;;;;;;;;;5009424;28;20199;-80
2021/06/13 02:39:53;;;;;;;11.03;5.53;;;;;;;;;;5010870;28;20670;-78
2021/06/13 02:42:18;;;;;;;13.00;5.90;;;;;;;;;;5006793;28;20625;-79
2021/06/13 02:44:45;;;;;;;16.57;5.93;;;;;;;;;;5010677;28;20191;-78
2021/06/13 02:47:12;;;;;;;13.67;5.97;;;;;;;;;;5009332;28;20577;-78
2021/06/13 02:49:38;;;;;;;18.20;6.10;;;;;;;;;;4993085;28;20666;-77
2021/06/13 02:52:09;;;;;;;13.73;5.57;;;;;;;;;;5007610;28;20210;-77
2021/06/13 02:54:37;;;;;;;14.03;5.87;;;;;;;;;;5010412;28;20672;-78
2021/06/13 02:57:08;;;;;;;15.67;5.40;;;;;;;;;;5008138;28;20197;-78
2021/06/13 02:59:50;;;;;;;17.97;5.33;;;;;;;;;;5006985;28;20196;-77
2021/06/13 03:02:24;;;;;;;12.23;5.47;;;;;;;;;;5007941;28;20231;-77
2021/06/13 03:04:50;;;;;;;13.47;5.37;;;;;;;;;;5009166;28;20195;-79
2021/06/13 03:07:17;;;;;;;17.10;6.07;;;;;;;;;;5010959;28;20183;-77
2021/06/13 03:09:44;;;;;;;14.33;5.87;;;;;;;;;;5010223;28;20399;-77
2021/06/13 03:12:12;;;;;;;16.13;5.57;;;;;;;;;;5005618;28;20730;-77
2021/06/13 03:14:41;;;;;;;17.37;5.77;;;;;;;;;;5006269;28;20200;-76
2021/06/13 03:17:10;;;;;;;13.50;5.23;;;;;;;;;;5006575;28;20226;-75
2021/06/13 03:19:38;;;;;;;14.03;5.50;;;;;;;;;;5010689;28;20194;-77
2021/06/13 03:22:04;;;;;;;13.03;5.30;;;;;;;;;;5005118;28;20294;-79
2021/06/13 03:24:30;;;;;;;14.70;5.50;;;;;;;;;;5009384;28;20537;-77
2021/06/13 03:26:57;;;;;;;13.73;5.27;;;;;;;;;;5008643;28;20183;-77
2021/06/13 03:29:23;;;;;;;12.47;5.70;;;;;;;;;;5003849;28;20195;-77
2021/06/13 03:31:51;;;;;;;14.03;5.73;;;;;;;;;;5009836;28;20254;-77
2021/06/13 03:34:16;;;;;;;13.03;5.50;;;;;;;;;;5008872;28;20198;-76
2021/06/13 03:36:42;;;;;;;16.50;5.87;;;;;;;;;;5009687;28;20620;-79
2021/06/13 03:39:11;;;;;;;16.43;5.80;;;;;;;;;;5009192;28;20191;-77
2021/06/13 03:41:37;;;;;;;16.60;5.73;;;;;;;;;;5002563;28;20211;-78
2021/06/13 03:44:02;;;;;;;12.07;5.57;;;;;;;;;;5009437;28;20274;-78
2021/06/13 03:46:28;;;;;;;16.80;5.47;;;;;;;;;;4991521;28;20203;-78
2021/06/13 03:48:57;;;;;;;13.53;5.20;;;;;;;;;;5009515;28;20199;-79
2021/06/13 03:51:27;;;;;;;10.10;5.23;;;;;;;;;;5007263;28;20238;-77
2021/06/13 03:53:57;;;;;;;11.40;5.20;;;;;;;;;;5009114;28;20674;-76
2021/06/13 03:56:31;;;;;;;14.97;5.33;;;;;;;;;;5009321;28;20194;-79
2021/06/13 03:58:57;;;;;;;11.00;5.30;;;;;;;;;;5004131;28;20225;-79
2021/06/13 04:01:23;;;;;;;18.10;5.43;;;;;;;;;;5005702;28;20242;-77
2021/06/13 04:03:53;;;;;;;9.73;4.87;;;;;;;;;;5007694;28;20191;-78
2021/06/13 04:06:21;;;;;;;11.70;4.73;;;;;;;;;;5009783;28;20211;-78
2021/06/13 04:08:46;;;;;;;13.67;5.00;;;;;;;;;;5009620;28;20269;-78
2021/06/13 04:11:13;;;;;;;13.43;4.80;;;;;;;;;;5008504;28;20270;-78
2021/06/13 04:13:39;;;;;;;13.70;5.30;;;;;;;;;;5007520;28;20195;-78
2021/06/13 04:16:07;;;;;;;12.27;4.60;;;;;;;;;;5007218;28;20207;-78
2021/06/13 04:18:36;;;;;;;9.67;4.73;;;;;;;;;;5011303;28;20621;-78
2021/06/13 04:21:06;;;;;;;14.60;4.80;;;;;;;;;;5007754;28;20651;-77
2021/06/13 04:23:32;;;;;;;10.50;4.87;;;;;;;;;;5003301;28;20203;-77
2021/06/13 04:25:58;;;;;;;9.47;5.53;;;;;;;;;;5005964;28;20197;-78
2021/06/13 04:28:24;;;;;;;10.97;4.67;;;;;;;;;;5007789;28;20415;-78
2021/06/13 04:31:12;;;;;;;13.80;5.10;;;;;;;;;;5009481;28;20190;-78
2021/06/13 04:33:42;;;;;;;14.20;4.47;;;;;;;;;;5007919;28;20266;-76
2021/06/13 04:36:08;;;;;;;8.87;4.43;;;;;;;;;;5008955;28;20187;-78
2021/06/13 04:38:34;;;;;;;15.13;5.30;;;;;;;;;;5008601;28;20191;-77
2021/06/13 04:41:00;;;;;;;13.20;5.07;;;;;;;;;;5009330;28;20211;-76
2021/06/13 04:43:25;;;;;;;9.30;4.87;;;;;;;;;;4988898;28;20592;-77
2021/06/13 04:45:55;;;;;;;12.87;5.13;;;;;;;;;;5008368;28;20191;-77
2021/06/13 04:48:21;;;;;;;10.07;4.37;;;;;;;;;;5007076;28;20256;-77
2021/06/13 04:50:49;;;;;;;11.60;4.50;;;;;;;;;;5007611;28;20290;-78
2021/06/13 04:53:48;;;;;;;9.93;4.93;;;;;;;;;;5007561;28;20219;-77
2021/06/13 04:56:45;;;;;;;9.93;4.80;;;;;;;;;;5008411;28;20695;-77
2021/06/13 04:59:15;;;;;;;11.53;4.70;;;;;;;;;;5006266;28;20194;-77
2021/06/13 05:01:41;;;;;;;10.13;4.40;;;;;;;;;;5006552;28;20254;-78
2021/06/13 05:04:07;;;;;;;13.67;4.50;;;;;;;;;;5006083;28;20274;-79
2021/06/13 05:06:33;;;;;;;10.37;4.40;;;;;;;;;;5005725;28;20608;-78
2021/06/13 05:08:59;;;;;;;9.90;5.20;;;;;;;;;;5008433;28;20187;-78
2021/06/13 05:11:27;;;;;;;12.40;5.17;;;;;;;;;;5007925;28;20694;-78
2021/06/13 05:13:54;;;;;;;19.93;5.23;;;;;;;;;;5005612;28;20194;-78
2021/06/13 05:16:20;;;;;;;9.63;4.97;;;;;;;;;;5000025;28;20191;-80
2021/06/13 05:18:45;;;;;;;15.50;5.43;;;;;;;;;;5006517;28;20549;-76
2021/06/13 05:21:12;;;;;;;12.50;4.73;;;;;;;;;;5008122;28;20265;-79
2021/06/13 05:23:38;;;;;;;11.67;4.37;;;;;;;;;;5007807;28;20274;-77
2021/06/13 05:26:08;;;;;;;9.30;4.40;;;;;;;;;;5007784;28;20278;-77
2021/06/13 05:28:33;;;;;;;10.90;5.00;;;;;;;;;;4996223;28;20203;-77
2021/06/13 05:31:01;;;;;;;9.17;4.37;;;;;;;;;;5005462;28;20187;-77
2021/06/13 05:33:26;;;;;;;8.93;5.07;;;;;;;;;;5003489;28;20960;-79
2021/06/13 05:35:52;;;;;;;12.13;5.17;;;;;;;;;;5008379;28;20258;-77
2021/06/13 05:38:20;;;;;;;13.17;4.43;;;;;;;;;;5007542;28;20548;-78
2021/06/13 05:40:48;;;;;;;13.10;4.83;;;;;;;;;;5007437;28;20559;-78
2021/06/13 05:43:15;;;;;;;11.77;4.83;;;;;;;;;;5006238;28;20245;-79
2021/06/13 05:45:41;;;;;;;16.53;5.87;;;;;;;;;;5004026;28;20729;-79
2021/06/13 05:48:07;;;;;;;10.23;4.60;;;;;;;;;;5005890;28;20188;-79
2021/06/13 05:50:33;;;;;;;9.57;4.17;;;;;;;;;;5005240;28;20326;-78
2021/06/13 05:53:02;;;;;;;7.70;4.43;;;;;;;;;;5007325;28;20840;-78
2021/06/13 05:55:28;;;;;;;11.67;4.83;;;;;;;;;;5008112;28;20662;-78
2021/06/13 05:57:55;;;;;;;10.50;4.40;;;;;;;;;;5008201;28;20191;-78
2021/06/13 06:00:24;;;;;;;12.87;4.50;;;;;;;;;;5007689;28;20183;-78
2021/06/13 06:02:49;;;;;;;9.90;4.17;;;;;;;;;;5006370;28;20226;-79
2021/06/13 06:05:17;;;;;;;10.23;4.23;;;;;;;;;;5006839;28;20183;-78
2021/06/13 06:07:46;;;;;;;11.50;4.30;;;;;;;;;;5007137;28;20261;-79
2021/06/13 06:10:12;;;;;;;13.50;4.13;;;;;;;;;;5007691;28;20184;-78
2021/06/13 06:12:43;;;;;;;14.07;4.57;;;;;;;;;;5006206;28;20215;-78
2021/06/13 06:15:11;;;;;;;8.00;4.60;;;;;;;;;;5005290;28;20190;-78
2021/06/13 06:17:37;;;;;;;10.83;4.73;;;;;;;;;;5004929;28;20190;-78
2021/06/13 06:20:03;;;;;;;11.63;4.47;;;;;;;;;;5006061;28;20595;-79
2021/06/13 06:22:28;;;;;;;10.77;4.63;;;;;;;;;;5002160;28;20597;-78
2021/06/13 06:24:58;;;;;;;16.77;4.97;;;;;;;;;;5006978;28;20199;-78
2021/06/13 06:27:26;;;;;;;10.63;4.80;;;;;;;;;;5007614;28;20561;-78
2021/06/13 06:29:51;;;;;;;12.67;4.63;;;;;;;;;;5006304;28;20250;-77
2021/06/13 06:32:17;;;;;;;10.57;3.77;;;;;;;;;;5004956;28;20199;-79
2021/06/13 06:34:42;;;;;;;15.17;4.57;;;;;;;;;;5009840;28;20282;-79
2021/06/13 06:37:07;;;;;;;12.53;4.30;;;;;;;;;;5010933;28;20198;-78
2021/06/13 06:39:35;;;;;;;9.30;4.07;;;;;;;;;;5007633;28;20730;-78
2021/06/13 06:42:00;;;;;;;11.87;4.47;;;;;;;;;;5009741;28;20219;-77
2021/06/13 06:44:26;;;;;;;9.23;4.57;;;;;;;;;;5009754;28;20187;-77
2021/06/13 06:46:52;;;;;;;10.17;4.63;;;;;;;;;;5010028;28;20191;-77
2021/06/13 06:49:19;;;;;;;10.33;4.00;;;;;;;;;;5008018;28;20222;-77
2021/06/13 06:51:47;;;;;;;12.10;4.13;;;;;;;;;;5005536;28;20206;-78
2021/06/13 06:54:13;;;;;;;9.50;4.23;;;;;;;;;;4992236;28;20198;-78
2021/06/13 06:56:40;;;;;;;11.97;4.60;;;;;;;;;;4992445;28;20286;-79
2021/06/13 06:59:05;;;;;;;11.03;4.07;;;;;;;;;;4989523;28;20759;-78
2021/06/13 07:01:31;;;;;;;9.53;4.27;;;;;;;;;;5007954;28;20554;-78
2021/06/13 07:03:56;;;;;;;9.57;3.30;;;;;;;;;;5009268;28;20648;-78
2021/06/13 07:06:21;;;;;;;11.03;4.27;;;;;;;;;;5008997;28;20191;-78
2021/06/13 07:08:47;;;;;;;11.07;4.13;;;;;;;;;;5008068;28;20211;-78
2021/06/13 07:11:12;;;;;;;11.00;4.00;;;;;;;;;;5009461;28;20690;-78
2021/06/13 07:13:38;;;;;;;11.30;3.90;;;;;;;;;;5007541;28;20210;-77
2021/06/13 07:16:03;;;;;;;10.73;4.13;;;;;;;;;;5007517;28;20286;-78
2021/06/13 07:18:29;;;;;;;8.27;3.40;;;;;;;;;;5010372;28;20592;-78
2021/06/13 07:20:54;;;;;;;11.13;3.97;;;;;;;;;;5009618;28;20191;-79
2021/06/13 07:23:20;;;;;;;11.82;3.70;;;;;;;;;;5006576;28;20268;-78
2021/06/13 07:25:48;;;;;;;9.15;3.63;;;;;;;;;;5005692;28;20199;-78
2021/06/13 07:28:16;;;;;;;10.75;3.42;;;;;;;;;;5008400;28;20256;-77
2021/06/13 07:30:42;;;;;;;7.40;3.28;;;;;;;;;;5000955;28;20607;-78
2021/06/13 07:33:11;;;;;;;7.47;3.88;;;;;;;;;;5008825;28;20253;-77
2021/06/13 07:35:38;;;;;;;6.32;3.05;;;;;;;;;;5009081;28;20670;-80
2021/06/13 07:38:04;;;;;;;9.57;3.60;;;;;;;;;;4992094;28;20191;-80
2021/06/13 07:40:31;;;;;;;9.15;3.67;;;;;;;;;;5007215;28;20295;-81
2021/06/13 07:42:58;;;;;;;11.52;3.80;;;;;;;;;;5009470;28;20222;-81
2021/06/13 07:45:24;;;;;;;11.50;3.50;;;;;;;;;;5004857;28;20192;-82
2021/06/13 07:47:50;;;;;;;9.18;3.45;;;;;;;;;;5008137;28;20215;-83
2021/06/13 07:50:17;;;;;;;12.15;3.60;;;;;;;;;;5007372;28;20726;-82
2021/06/13 07:52:44;;;;;;;8.35;3.35;;;;;;;;;;4985777;28;20203;-83
2021/06/13 07:55:12;;;;;;;9.20;3.78;;;;;;;;;;4998510;28;20219;-80
2021/06/13 07:57:39;;;;;;;8.23;3.33;;;;;;;;;;5005568;28;20238;-81
2021/06/13 08:00:09;;;;;;;8.98;3.40;;;;;;;;;;5003502;28;20184;-80
2021/06/13 08:02:38;;;;;;;9.60;3.47;;;;;;;;;;5004557;28;20215;-81
2021/06/13 08:05:09;;;;;;;9.32;3.50;;;;;;;;;;5010782;28;20175;-81
2021/06/13 08:07:35;;;;;;;5.47;3.25;;;;;;;;;;5009076;28;20223;-81
2021/06/13 08:10:01;;;;;;;8.75;3.50;;;;;;;;;;5009974;28;20224;-81
2021/06/13 08:12:26;;;;;;;5.40;2.97;;;;;;;;;;5007142;28;20213;-81
2021/06/13 08:14:54;;;;;;;7.43;3.55;;;;;;;;;;5009163;28;20183;-81
2021/06/13 08:17:19;;;;;;;9.38;3.75;;;;;;;;;;5010565;28;20179;-81
2021/06/13 08:19:45;;;;;;;8.77;3.10;;;;;;;;;;5007133;28;20206;-81
2021/06/13 08:22:11;;;;;;;8.90;3.10;;;;;;;;;;5008674;28;20497;-81
2021/06/13 08:24:37;;;;;;;9.30;3.95;;;;;;;;;;5008594;28;20184;-81
2021/06/13 08:27:03;;;;;;;7.63;3.40;;;;;;;;;;5009425;28;20186;-81
2021/06/13 08:29:31;;;;;;;9.32;3.35;;;;;;;;;;5008363;28;20180;-81
2021/06/13 08:31:57;;;;;;;8.98;3.20;;;;;;;;;;5007824;28;20241;-80
2021/06/13 08:34:22;;;;;;;7.97;3.30;;;;;;;;;;5006882;28;20203;-80
2021/06/13 08:36:49;;;;;;;6.30;3.20;;;;;;;;;;5008749;28;20195;-80
2021/06/13 08:39:15;;;;;;;8.93;3.50;;;;;;;;;;5009949;28;20176;-80
2021/06/13 08:41:40;;;;;;;8.07;3.47;;;;;;;;;;5003535;28;20511;-80
2021/06/13 08:44:06;;;;;;;7.63;3.25;;;;;;;;;;5006102;28;20636;-80
2021/06/13 08:46:32;;;;;;;12.00;3.28;;;;;;;;;;5007869;28;20191;-76
2021/06/13 08:48:57;;;;;;;9.27;3.15;;;;;;;;;;5007010;28;20747;-77
2021/06/13 08:51:22;;;;;;;7.75;3.20;;;;;;;;;;5004626;28;20226;-76
2021/06/13 08:53:50;;;;;;;6.22;2.92;;;;;;;;;;5005052;28;20195;-75
2021/06/13 08:56:17;;;;;;;6.68;3.15;;;;;;;;;;5006519;28;20194;-76
2021/06/13 08:58:43;;;;;;;8.68;3.22;;;;;;;;;;5007801;28;20187;-77
2021/06/13 09:01:10;;;;;;;6.43;3.47;;;;;;;;;;5005508;28;20204;-76
2021/06/13 09:03:39;;;;;;;6.13;3.40;;;;;;;;;;5007675;28;20179;-75
2021/06/13 09:06:04;;;;;;;6.45;3.03;;;;;;;;;;5005721;28;20202;-75
2021/06/13 09:08:37;;;;;;;8.55;3.13;;;;;;;;;;5008402;28;20480;-76
2021/06/13 09:11:04;;;;;;;7.18;3.22;;;;;;;;;;5008052;28;20283;-77
2021/06/13 09:13:32;;;;;;;5.82;2.72;;;;;;;;;;5000577;28;20582;-82
2021/06/13 09:16:08;;;;;;;7.68;3.30;;;;;;;;;;4989248;28;20221;-75
2021/06/13 09:18:46;;;;;;;8.30;3.35;;;;;;;;;;5004019;28;20275;-77
2021/06/13 09:21:14;;;;;;;8.60;3.75;;;;;;;;;;5005265;28;20341;-77
2021/06/13 09:23:42;;;;;;;6.72;3.42;;;;;;;;;;5007464;28;20241;-79
2021/06/13 09:26:17;;;;;;;7.95;2.85;;;;;;;;;;5000984;28;20182;-77
2021/06/13 09:28:45;;;;;;;7.28;3.13;;;;;;;;;;5006143;28;20635;-76
2021/06/13 09:31:17;;;;;;;5.60;3.47;;;;;;;;;;5007248;28;20266;-79
2021/06/13 09:33:44;;;;;;;6.38;3.15;;;;;;;;;;5005701;28;20265;-76
2021/06/13 09:36:11;;;;;;;5.82;2.92;;;;;;;;;;5006491;28;20222;-75
2021/06/13 09:38:46;;;;;;;7.35;3.67;;;;;;;;;;5005452;28;20189;-74
2021/06/13 09:41:15;;;;;;;6.18;3.40;;;;;;;;;;5007830;28;20663;-74
2021/06/13 09:43:44;;;;;;;6.50;3.03;;;;;;;;;;5002971;28;20192;-74
2021/06/13 09:46:12;;;;;;;5.97;2.90;;;;;;;;;;5004147;28;20187;-74
2021/06/13 09:48:43;;;;;;;7.43;3.08;;;;;;;;;;5007261;28;20214;-74
2021/06/13 09:51:17;;;;;;;7.13;3.85;;;;;;;;;;5006907;28;20179;-75
2021/06/13 09:53:44;;;;;;;8.45;3.35;;;;;;;;;;5007327;28;20253;-76
2021/06/13 09:56:22;;;;;;;6.18;3.45;;;;;;;;;;5007215;28;20554;-75
2021/06/13 09:58:56;;;;;;;6.50;3.50;;;;;;;;;;5006804;28;20290;-77
2021/06/13 10:01:33;;;;;;;5.25;2.97;;;;;;;;;;5002740;28;20265;-77
2021/06/13 10:04:00;;;;;;;5.53;3.45;;;;;;;;;;5005935;28;20211;-74
2021/06/13 10:06:35;;;;;;;10.43;4.00;;;;;;;;;;4990889;28;20219;-76
2021/06/13 10:09:06;;;;;;;8.07;3.75;;;;;;;;;;5010062;28;20270;-77
2021/06/13 10:11:32;;;;;;;6.22;3.70;;;;;;;;;;4997961;28;20728;-74
2021/06/13 10:14:04;;;;;;;6.72;3.47;;;;;;;;;;5010734;28;20277;-74
2021/06/13 10:16:39;;;;;;;7.30;3.35;;;;;;;;;;5005534;28;20194;-75
2021/06/13 10:19:06;;;;;;;6.70;3.20;;;;;;;;;;5009960;28;20198;-75
2021/06/13 10:21:53;;;;;;;6.93;4.20;;;;;;;;;;5006306;28;20280;-76
2021/06/13 10:24:26;;;;;;;8.30;3.35;;;;;;;;;;5007883;28;20738;-76
2021/06/13 10:27:00;;;;;;;6.70;3.25;;;;;;;;;;5010229;28;20586;-74
2021/06/13 10:29:28;;;;;;;6.18;3.17;;;;;;;;;;5009347;28;20278;-75
2021/06/13 10:31:56;;;;;;;5.78;3.60;;;;;;;;;;5010128;28;20207;-75
2021/06/13 10:34:23;;;;;;;4.20;2.85;;;;;;;;;;5010609;28;20218;-75
2021/06/13 10:36:49;;;;;;;6.28;2.90;;;;;;;;;;5011566;28;20237;-74
2021/06/13 10:39:21;;;;;;;5.40;3.05;;;;;;;;;;5010191;28;20194;-75
2021/06/13 10:41:47;;;;;;;5.97;3.40;;;;;;;;;;5004376;28;20247;-75
2021/06/13 10:44:18;;;;;;;8.77;3.42;;;;;;;;;;5007777;28;20702;-76
2021/06/13 10:46:49;;;;;;;4.75;2.88;;;;;;;;;;5010670;28;20186;-76
2021/06/13 10:49:37;;;;;;;5.47;2.83;;;;;;;;;;5010782;28;20171;-75
2021/06/13 10:52:18;;;;;;;7.57;3.67;;;;;;;;;;5008907;28;20479;-77
2021/06/13 10:54:50;;;;;;;5.38;3.38;;;;;;;;;;5006717;28;20227;-76
2021/06/13 10:57:17;;;;;;;9.25;3.85;;;;;;;;;;5009475;28;20269;-77
2021/06/13 10:59:48;;;;;;;6.07;3.42;;;;;;;;;;5009543;28;20254;-78
2021/06/13 11:02:21;;;;;;;6.78;3.05;;;;;;;;;;5003124;28;20215;-78
2021/06/13 11:04:52;;;;;;;4.13;3.05;;;;;;;;;;5009393;28;20198;-78
2021/06/13 11:07:27;;;;;;;7.95;3.53;;;;;;;;;;5010241;28;20218;-78
2021/06/13 11:12:58;;;;;;;6.35;3.30;;;;;;;;;;5008475;28;20215;-77
2021/06/13 11:15:39;;;;;;;8.45;3.20;;;;;;;;;;5009280;28;20180;-75
2021/06/13 11:18:05;;;;;;;8.35;3.83;;;;;;;;;;5007504;28;20530;-76
2021/06/13 11:20:35;;;;;;;6.90;3.80;;;;;;;;;;5009663;28;20442;-75
2021/06/13 11:23:21;;;;;;;7.35;3.50;;;;;;;;;;5008168;28;20219;-75
2021/06/13 11:25:47;;;;;;;5.78;3.42;;;;;;;;;;4978786;28;20199;-81
2021/06/13 11:28:30;;;;;;;8.13;3.30;;;;;;;;;;4992123;28;20658;-77
2021/06/13 11:31:19;;;;;;;5.35;3.25;;;;;;;;;;5004756;28;20314;-75
2021/06/13 11:33:55;;;;;;;5.85;3.08;;;;;;;;;;5007479;28;20187;-76
2021/06/13 11:36:24;;;;;;;5.63;3.40;;;;;;;;;;5009497;28;20183;-76
2021/06/13 11:38:53;;;;;;;7.32;3.90;;;;;;;;;;5011012;28;20163;-76
2021/06/13 11:41:43;;;;;;;5.32;3.20;;;;;;;;;;5008959;28;20214;-74
2021/06/13 11:44:35;;;;;;;6.03;3.55;;;;;;;;;;5008777;28;20188;-75
2021/06/13 11:47:24;;;;;;;7.70;4.20;;;;;;;;;;4993950;28;20580;-75
2021/06/13 11:49:50;;;;;;;7.50;3.97;;;;;;;;;;5008031;28;20725;-75
2021/06/13 11:52:18;;;;;;;5.22;2.92;;;;;;;;;;5007855;28;20199;-77
2021/06/13 11:54:47;;;;;;;7.22;3.00;;;;;;;;;;5010098;28;20261;-74
2021/06/13 11:57:12;;;;;;;6.22;3.33;;;;;;;;;;5010872;28;20220;-76
2021/06/13 11:59:38;;;;;;;5.30;2.97;;;;;;;;;;5010137;28;20191;-77
2021/06/13 12:02:09;;;;;;;5.00;3.20;;;;;;;;;;5005252;28;20722;-76
2021/06/13 12:04:34;;;;;;;8.45;3.40;;;;;;;;;;5009110;28;20190;-77
2021/06/13 12:07:02;;;;;;;5.28;2.72;;;;;;;;;;5010261;28;20184;-75
2021/06/13 12:09:31;;;;;;;6.13;3.05;;;;;;;;;;5009406;28;20560;-75
2021/06/13 12:11:58;;;;;;;10.63;3.30;;;;;;;;;;5009120;28;20261;-75
2021/06/13 12:14:35;;;;;;;6.80;3.38;;;;;;;;;;5008206;28;20187;-76
2021/06/13 12:17:04;;;;;;;11.20;3.30;;;;;;;;;;5007931;28;20191;-76
2021/06/13 12:19:34;;;;;;;8.05;3.20;;;;;;;;;;5006957;28;20506;-76
2021/06/13 12:27:27;;;;;;;6.40;3.15;;;;;;;;;;5005210;28;20741;-76
2021/06/13 12:30:00;;;;;;;6.53;3.22;;;;;;;;;;5002589;28;20245;-76
2021/06/13 12:32:26;;;;;;;5.25;3.17;;;;;;;;;;5002870;28;20216;-76
2021/06/13 12:35:04;;;;;;;5.95;3.00;;;;;;;;;;5003852;28;20199;-75
2021/06/13 12:37:30;;;;;;;5.43;2.85;;;;;;;;;;5000249;28;20277;-75
2021/06/13 12:39:59;;;;;;;6.82;3.10;;;;;;;;;;5009042;28;20275;-76
2021/06/13 12:42:28;;;;;;;6.35;3.15;;;;;;;;;;5006301;28;20215;-76
2021/06/13 12:45:09;;;;;;;7.88;3.40;;;;;;;;;;5006828;28;20187;-77
2021/06/13 12:47:34;;;;;;;6.15;2.92;;;;;;;;;;5007997;28;20655;-76
2021/06/13 12:50:03;;;;;;;8.20;4.00;;;;;;;;;;5007319;28;20198;-75
2021/06/13 12:52:28;;;;;;;6.28;3.20;;;;;;;;;;5006678;28;20769;-75
2021/06/13 12:54:57;;;;;;;5.85;3.20;;;;;;;;;;5008848;28;20191;-78
2021/06/13 12:57:24;;;;;;;7.35;3.28;;;;;;;;;;5001813;28;20190;-75
2021/06/13 12:59:49;;;;;;;5.63;2.92;;;;;;;;;;5008436;28;20183;-75
2021/06/13 13:02:15;;;;;;;6.03;3.45;;;;;;;;;;4993081;28;20578;-75
2021/06/13 13:04:49;;;;;;;5.57;2.80;;;;;;;;;;5007186;28;20663;-75
2021/06/13 13:07:34;;;;;;;6.10;3.28;;;;;;;;;;5008099;28;20195;-74
2021/06/13 13:10:07;;;;;;;5.10;3.00;;;;;;;;;;5008033;28;20195;-74
2021/06/13 13:12:35;;;;;;;7.82;3.08;;;;;;;;;;4998558;28;20207;-74
2021/06/13 13:15:09;;;;;;;7.00;3.50;;;;;;;;;;5008752;28;20183;-75
2021/06/13 13:17:35;;;;;;;5.60;3.00;;;;;;;;;;4988095;28;20850;-75
2021/06/13 13:20:13;;;;;;;5.43;3.30;;;;;;;;;;5006855;28;20187;-76
2021/06/13 13:22:46;;;;;;;7.93;3.28;;;;;;;;;;5005381;28;20245;-76
2021/06/13 13:25:16;;;;;;;6.40;3.20;;;;;;;;;;5003398;28;20597;-75
2021/06/13 13:27:42;;;;;;;6.13;3.30;;;;;;;;;;5008816;28;20623;-75
2021/06/13 13:30:30;;;;;;;6.47;3.00;;;;;;;;;;5007839;28;20222;-75
2021/06/13 13:32:59;;;;;;;6.07;2.92;;;;;;;;;;5004551;28;20200;-75
2021/06/13 13:35:30;;;;;;;7.18;3.42;;;;;;;;;;4996968;28;20203;-79
2021/06/13 13:37:55;;;;;;;5.25;3.20;;;;;;;;;;5006864;28;20542;-79
2021/06/13 13:40:21;;;;;;;7.68;3.22;;;;;;;;;;5007042;28;20182;-79
2021/06/13 13:42:58;;;;;;;5.80;3.28;;;;;;;;;;5005938;28;20203;-80
2021/06/13 13:45:25;;;;;;;9.07;3.50;;;;;;;;;;5011512;28;20217;-80
2021/06/13 13:47:51;;;;;;;8.05;3.40;;;;;;;;;;4990629;28;20183;-80
2021/06/13 13:50:17;;;;;;;5.45;2.90;;;;;;;;;;5010179;28;20219;-79
2021/06/13 13:52:47;;;;;;;7.38;3.30;;;;;;;;;;5010068;28;20230;-79
2021/06/13 13:55:12;;;;;;;7.00;3.53;;;;;;;;;;5012137;28;20187;-78
2021/06/13 13:57:43;;;;;;;6.72;3.20;;;;;;;;;;5010972;28;20238;-80
2021/06/13 14:00:09;;;;;;;5.40;3.00;;;;;;;;;;5009531;28;20242;-80
2021/06/13 14:02:36;;;;;;;6.97;3.17;;;;;;;;;;5006740;28;20261;-78
2021/06/13 14:05:04;;;;;;;6.32;3.38;;;;;;;;;;5012137;28;20543;-78
2021/06/13 14:07:32;;;;;;;5.68;3.22;;;;;;;;;;5011978;28;20196;-80
2021/06/13 14:09:58;;;;;;;5.72;3.33;;;;;;;;;;5013348;28;20648;-80
2021/06/13 14:12:24;;;;;;;8.85;3.30;;;;;;;;;;4993054;28;20643;-78
2021/06/13 14:14:49;;;;;;;5.40;3.17;;;;;;;;;;5010048;28;20184;-80
2021/06/13 14:17:15;;;;;;;5.10;2.80;;;;;;;;;;5011775;28;20191;-78
2021/06/13 14:19:42;;;;;;;4.32;2.95;;;;;;;;;;5007436;28;20198;-78
2021/06/13 14:22:08;;;;;;;5.55;2.90;;;;;;;;;;5001823;28;20302;-76
2021/06/13 14:24:33;;;;;;;5.35;3.05;;;;;;;;;;5008547;28;20399;-77
2021/06/13 14:26:58;;;;;;;4.25;3.10;;;;;;;;;;5009089;28;20187;-77
2021/06/13 14:29:25;;;;;;;6.72;3.17;;;;;;;;;;5010324;28;20184;-75
2021/06/13 14:31:52;;;;;;;4.97;3.10;;;;;;;;;;5006566;28;20200;-76
2021/06/13 14:34:17;;;;;;;7.35;3.03;;;;;;;;;;5005139;28;20655;-76
2021/06/13 14:36:43;;;;;;;6.75;3.20;;;;;;;;;;5007553;28;20199;-75
2021/06/13 14:39:08;;;;;;;5.45;3.35;;;;;;;;;;5010299;28;20175;-76
2021/06/13 14:41:34;;;;;;;5.68;3.53;;;;;;;;;;5009811;28;20211;-76
2021/06/13 14:43:59;;;;;;;5.85;3.30;;;;;;;;;;5008514;28;20614;-76
2021/06/13 14:46:26;;;;;;;5.15;3.35;;;;;;;;;;5009265;28;20526;-76
2021/06/13 14:48:52;;;;;;;3.80;2.92;;;;;;;;;;5010283;28;20187;-76
2021/06/13 14:51:19;;;;;;;7.20;3.60;;;;;;;;;;5010276;28;20589;-75
2021/06/13 14:53:50;;;;;;;5.97;3.03;;;;;;;;;;5009462;28;20330;-76
2021/06/13 14:56:16;;;;;;;5.82;3.08;;;;;;;;;;5009842;28;20325;-76